METAR Data
IDs: Format: Raw Decoded Include TAF

Data at: 1423 UTC 10 Jul 2020

METAR for:KFPK (Charotte/Beach Fld, MI, US)
Text:KFPK 101422Z AUTO 00000KT 7SM SCT005 SCT042 OVC075 22/21 A2979 RMK AO2 P0003
Temperature: 22.0°C ( 72°F)
Dewpoint: 21.0°C ( 70°F) [RH = 94%]
Pressure (altimeter):29.79 inches Hg (1008.9 mb)
Winds:calm
Visibility: 7 sm ( 11 km)
Ceiling:7500 feet AGL
Clouds: scattered clouds at 500 feet AGL, scattered clouds at 4200 feet AGL, overcast cloud deck at 7500 feet AGL
QC Flag:automated observation with no human augmentation

TAF for:KFPK (Charotte/Beach Fld, MI, US)
Text:No data found

METAR for:KLAN (Lansing/Capital City, MI, US)
Text:KLAN 101359Z 11004KT 5SM -RA BR BKN110 21/20 A2981 RMK AO2 LTG DSNT NE AND E P0001 T02110200
Temperature: 21.1°C ( 70°F)
Dewpoint: 20.0°C ( 68°F) [RH = 93%]
Pressure (altimeter):29.81 inches Hg (1009.6 mb)
Winds:from the ESE (110 degrees) at 5 MPH (4 knots; 2.1 m/s)
Visibility: 5 sm ( 8 km)
Ceiling:11000 feet AGL
Clouds: broken clouds at 11000 feet AGL
Weather:-RA BR (light rain, mist)

TAF for:KLAN (Lansing/Capital City, MI, US) issued at 1312 UTC 10 Jul 2020
Text:KLAN 101312Z 1013/1112 24006KT 3SM TSRA BR BKN025CB
Forecast period:1300 to 1500 UTC 10 July 2020
Forecast type:FROM: standard forecast or significant change
Winds:from the WSW (240 degrees) at 7 MPH (6 knots; 3.1 m/s)
Visibility: 3 sm ( 5 km)
Ceiling:2500 feet AGL
Clouds: broken clouds at 2500 feet AGL
Weather:TSRA BR (rain associated with thunderstorm(s), mist)
Text:TEMPO 1013/1015 1SM +TSRA
Forecast period:1300 to 1500 UTC 10 July 2020
Forecast type:TEMPORARY: The following changes expected for less than half the time period
Visibility: 1.00 sm ( 1.61 km)
Clouds:missing
Weather:+TSRA (heavy rain associated with thunderstorm(s))
Text:FM101500 22006KT P6SM -SHRA BKN035
Forecast period:1500 to 1900 UTC 10 July 2020
Forecast type:FROM: standard forecast or significant change
Winds:from the SW (220 degrees) at 7 MPH (6 knots; 3.1 m/s)
Visibility:6 or more sm (10+ km)
Ceiling:3500 feet AGL
Clouds: broken clouds at 3500 feet AGL
Weather:-SHRA (light rain showers)
Text:FM101900 30007KT P6SM VCTS BKN025CB
Forecast period:1900 to 2200 UTC 10 July 2020
Forecast type:FROM: standard forecast or significant change
Winds:from the WNW (300 degrees) at 8 MPH (7 knots; 3.6 m/s)
Visibility:6 or more sm (10+ km)
Ceiling:2500 feet AGL
Clouds: broken clouds at 2500 feet AGL
Weather:VCTS (thunderstorm in vicinity)
Text:FM102200 32010KT P6SM VCSH BKN035
Forecast period:2200 UTC 10 July 2020 to 1200 UTC 11 July 2020
Forecast type:FROM: standard forecast or significant change
Winds:from the NW (320 degrees) at 12 MPH (10 knots; 5.1 m/s)
Visibility:6 or more sm (10+ km)
Ceiling:3500 feet AGL
Clouds: broken clouds at 3500 feet AGL
Weather:VCSH (showers in vicinity)